Time,TemperatureF,DewpointF,PressureIn,WindDirection,WindDirectionDegrees,WindSpeedMPH,WindSpeedGustMPH,Humidity,HourlyPrecipIn,Conditions,Clouds,dailyrainin,SoftwareType,DateUTC
2013-06-22 10:02:00,81.0,74.0,-100.00,WNW,300,5.0,13.0,78,-99.99,,,-99.99,,2013-06-22 15:02:00,
2013-06-22 10:12:00,82.0,74.0,-100.00,WNW,295,6.0,11.0,76,-99.99,,,-99.99,,2013-06-22 15:12:00,
2013-06-22 10:34:00,83.0,74.0,-100.00,WNW,295,7.0,17.0,74,-99.99,,,-99.99,,2013-06-22 15:34:00,
2013-06-22 10:43:00,83.0,73.0,-100.00,WNW,295,9.0,15.0,72,-99.99,,,-99.99,,2013-06-22 15:43:00,
2013-06-22 10:53:00,84.0,74.0,-100.00,WNW,300,7.0,13.0,70,-99.99,,,-99.99,,2013-06-22 15:53:00,
2013-06-22 11:02:00,84.0,74.0,-100.00,WNW,300,7.0,13.0,70,-99.99,,,-99.99,,2013-06-22 16:02:00,
2013-06-22 11:12:00,84.0,74.0,-100.00,West,280,5.0,13.0,71,-99.99,,,-99.99,,2013-06-22 16:12:00,
2013-06-22 11:34:00,85.0,75.0,-100.00,WNW,300,4.0,10.0,71,-99.99,,,-99.99,,2013-06-22 16:34:00,
2013-06-22 11:43:00,84.0,74.0,-100.00,WNW,295,7.0,13.0,71,-99.99,,,-99.99,,2013-06-22 16:43:00,
2013-06-22 11:52:00,87.0,74.0,-100.00,WNW,300,7.0,11.0,65,-99.99,,,-99.99,,2013-06-22 16:52:00,
2013-06-22 12:02:00,87.0,74.0,-100.00,WNW,300,7.0,11.0,65,-99.99,,,-99.99,,2013-06-22 17:02:00,
2013-06-22 12:11:00,87.0,74.0,-100.00,WNW,295,4.0,12.0,66,-99.99,,,-99.99,,2013-06-22 17:11:00,
2013-06-22 12:34:00,87.0,73.0,-100.00,WNW,295,9.0,17.0,62,-99.99,,,-99.99,,2013-06-22 17:34:00,
2013-06-22 12:43:00,88.0,74.0,-100.00,WNW,300,5.0,14.0,63,-99.99,,,-99.99,,2013-06-22 17:43:00,
2013-06-22 13:02:00,88.0,73.0,-100.00,WNW,295,8.0,14.0,61,-99.99,,,-99.99,,2013-06-22 18:02:00,
2013-06-22 13:12:00,88.0,73.0,-100.00,WNW,285,7.0,13.0,62,-99.99,,,-99.99,,2013-06-22 18:12:00,
2013-06-22 13:34:00,89.0,74.0,-100.00,WNW,290,5.0,13.0,61,-99.99,,,-99.99,,2013-06-22 18:34:00,
2013-06-22 13:43:00,89.0,73.0,-100.00,WNW,300,4.0,11.0,59,-99.99,,,-99.99,,2013-06-22 18:43:00,
2013-06-22 13:52:00,90.0,74.0,-100.00,WNW,295,4.0,11.0,60,-99.99,,,-99.99,,2013-06-22 18:52:00,
2013-06-22 14:01:00,90.0,74.0,-100.00,WNW,295,4.0,11.0,60,-99.99,,,-99.99,,2013-06-22 19:01:00,
2013-06-22 14:11:00,89.0,74.0,-100.00,West,280,5.0,9.0,61,-99.99,,,-99.99,,2013-06-22 19:11:00,
2013-06-22 14:22:00,89.0,74.0,-100.00,West,280,5.0,9.0,61,-99.99,,,-99.99,,2013-06-22 19:22:00,
2013-06-22 14:33:00,89.0,72.0,-100.00,West,275,6.0,14.0,58,-99.99,,,-99.99,,2013-06-22 19:33:00,
2013-06-22 14:43:00,89.0,73.0,-100.00,WNW,300,7.0,16.0,59,-99.99,,,-99.99,,2013-06-22 19:43:00,
2013-06-22 14:53:00,90.0,73.0,-100.00,West,280,7.0,13.0,57,-99.99,,,-99.99,,2013-06-22 19:53:00,
2013-06-22 15:02:00,90.0,73.0,-100.00,West,280,7.0,13.0,57,-99.99,,,-99.99,,2013-06-22 20:02:00,
2013-06-22 15:11:00,90.0,73.0,-100.00,WNW,290,6.0,13.0,58,-99.99,,,-99.99,,2013-06-22 20:11:00,
2013-06-22 15:33:00,90.0,72.0,-100.00,WNW,295,8.0,12.0,57,-99.99,,,-99.99,,2013-06-22 20:33:00,
2013-06-22 15:43:00,89.0,73.0,-100.00,WNW,295,7.0,11.0,59,-99.99,,,-99.99,,2013-06-22 20:43:00,
2013-06-22 16:01:00,89.0,73.0,-100.00,West,270,7.0,14.0,59,-99.99,,,-99.99,,2013-06-22 21:01:00,
2013-06-22 16:11:00,90.0,74.0,-100.00,WNW,295,5.0,10.0,59,-99.99,,,-99.99,,2013-06-22 21:11:00,
2013-06-22 16:34:00,90.0,72.0,-100.00,WNW,285,8.0,15.0,56,-99.99,,,-99.99,,2013-06-22 21:34:00,
2013-06-22 16:43:00,89.0,71.0,-100.00,WNW,290,6.0,14.0,57,-99.99,,,-99.99,,2013-06-22 21:43:00,
2013-06-22 16:53:00,91.0,72.0,-100.00,WNW,295,6.0,12.0,55,-99.99,,,-99.99,,2013-06-22 21:53:00,
2013-06-22 17:02:00,91.0,72.0,-100.00,WNW,295,6.0,12.0,55,-99.99,,,-99.99,,2013-06-22 22:02:00,
2013-06-22 17:12:00,91.0,73.0,-100.00,West,275,6.0,10.0,57,-99.99,,,-99.99,,2013-06-22 22:12:00,
2013-06-22 17:33:00,90.0,71.0,-100.00,WNW,290,8.0,14.0,55,-99.99,,,-99.99,,2013-06-22 22:33:00,
2013-06-22 17:43:00,90.0,72.0,-100.00,WNW,285,7.0,15.0,57,-99.99,,,-99.99,,2013-06-22 22:43:00,
2013-06-22 17:52:00,89.0,72.0,-100.00,West,280,6.0,11.0,58,-99.99,,,-99.99,,2013-06-22 22:52:00,
2013-06-22 18:01:00,89.0,72.0,-100.00,West,280,6.0,11.0,58,-99.99,,,-99.99,,2013-06-22 23:01:00,
2013-06-22 18:11:00,88.0,72.0,-100.00,WNW,285,6.0,10.0,59,-99.99,,,-99.99,,2013-06-22 23:11:00,
2013-06-22 18:22:00,88.0,72.0,-100.00,WNW,285,6.0,10.0,59,-99.99,,,-99.99,,2013-06-22 23:22:00,
2013-06-22 18:34:00,87.0,73.0,-100.00,West,270,6.0,14.0,62,-99.99,,,-99.99,,2013-06-22 23:34:00,
2013-06-22 18:43:00,85.0,73.0,-100.00,West,270,5.0,11.0,68,-99.99,,,-99.99,,2013-06-22 23:43:00,
2013-06-22 19:01:00,84.0,73.0,-100.00,West,270,5.0,11.0,71,-99.99,,,-99.99,,2013-06-23 00:01:00,
2013-06-22 19:11:00,83.0,73.0,-100.00,West,270,4.0,12.0,72,-99.99,,,-99.99,,2013-06-23 00:11:00,
2013-06-22 19:33:00,82.0,72.0,-100.00,West,280,5.0,10.0,72,-99.99,,,-99.99,,2013-06-23 00:33:00,
2013-06-22 19:42:00,82.0,72.0,-100.00,West,280,5.0,10.0,72,-99.99,,,-99.99,,2013-06-23 00:42:00,
2013-06-22 20:01:00,81.0,71.0,-100.00,West,280,5.0,10.0,73,-99.99,,,-99.99,,2013-06-23 01:01:00,
2013-06-22 20:11:00,80.0,71.0,-100.00,West,275,4.0,7.0,73,-99.99,,,-99.99,,2013-06-23 01:11:00,
2013-06-22 20:32:00,80.0,70.0,-100.00,WNW,285,4.0,8.0,74,-99.99,,,-99.99,,2013-06-23 01:32:00,
2013-06-22 20:42:00,79.0,70.0,-100.00,West,275,5.0,8.0,74,-99.99,,,-99.99,,2013-06-23 01:42:00,
2013-06-22 20:52:00,78.0,70.0,-100.00,West,270,3.0,7.0,76,-99.99,,,-99.99,,2013-06-23 01:52:00,
2013-06-22 21:01:00,78.0,70.0,-100.00,West,270,3.0,7.0,76,-99.99,,,-99.99,,2013-06-23 02:01:00,
2013-06-22 21:11:00,78.0,70.0,-100.00,West,265,3.0,5.0,76,-99.99,,,-99.99,,2013-06-23 02:11:00,
2013-06-22 21:31:00,77.0,69.0,-100.00,WSW,255,4.0,8.0,78,-99.99,,,-99.99,,2013-06-23 02:31:00,
2013-06-22 21:41:00,76.0,69.0,-100.00,West,265,4.0,8.0,79,-99.99,,,-99.99,,2013-06-23 02:41:00,
2013-06-22 21:52:00,76.0,69.0,-100.00,West,280,3.0,6.0,78,-99.99,,,-99.99,,2013-06-23 02:52:00,
2013-06-22 22:01:00,76.0,69.0,-100.00,West,280,3.0,6.0,78,-99.99,,,-99.99,,2013-06-23 03:01:00,
2013-06-22 22:11:00,76.0,68.0,-100.00,West,280,6.0,11.0,76,-99.99,,,-99.99,,2013-06-23 03:11:00,
2013-06-22 22:31:00,76.0,68.0,-100.00,WNW,285,4.0,10.0,76,-99.99,,,-99.99,,2013-06-23 03:31:00,
2013-06-22 22:41:00,76.0,68.0,-100.00,West,275,3.0,7.0,76,-99.99,,,-99.99,,2013-06-23 03:41:00,
2013-06-22 23:01:00,76.0,67.0,-100.00,West,275,4.0,10.0,76,-99.99,,,-99.99,,2013-06-23 04:01:00,
2013-06-22 23:11:00,75.0,67.0,-100.00,WSW,255,4.0,11.0,76,-99.99,,,-99.99,,2013-06-23 04:11:00,
2013-06-22 23:31:00,74.0,68.0,-100.00,West,275,5.0,14.0,79,-99.99,,,-99.99,,2013-06-23 04:31:00,
2013-06-22 23:42:00,74.0,68.0,-100.00,West,275,4.0,11.0,79,-99.99,,,-99.99,,2013-06-23 04:42:00,
2013-06-22 23:52:00,74.0,68.0,-100.00,West,275,6.0,11.0,80,-99.99,,,-99.99,,2013-06-23 04:52:00,